Time;durP1;ratioP1;P1;durP2;ratioP2;P2;SDS_P1;SDS_P2;PMS_P1;PMS_P2;Temp;Humidity;BMP_temperature;BMP_pressure;BME280_temperature;BME280_humidity;BME280_pressure;Samples;Min_cycle;Max_cycle;Signal;HPM_P1;HPM_P2
2023/03/20 00:00:40;;;;;;;6.55;2.17;;;;;;;13.10;91.76;100928.66;4972760;28;20072;-60
2023/03/20 00:03:06;;;;;;;2.22;1.60;;;;;;;13.10;92.17;100929.47;4989072;28;20034;-59
2023/03/20 00:05:32;;;;;;;2.85;1.63;;;;;;;13.10;91.83;100932.16;4971818;28;20053;-58
2023/03/20 00:07:57;;;;;;;5.97;2.40;;;;;;;13.07;91.91;100921.28;4973196;28;20027;-58
2023/03/20 00:10:39;;;;;;;3.47;1.90;;;;;;;13.07;91.60;100929.38;4976012;28;20821;-60
2023/03/20 00:13:09;;;;;;;5.68;2.00;;;;;;;13.21;91.01;100929.59;4972543;28;20493;-59
2023/03/20 00:15:37;;;;;;;6.28;1.90;;;;;;;13.04;91.83;100928.22;4987169;28;22452;-60
2023/03/20 00:18:12;;;;;;;3.45;1.65;;;;;;;13.06;91.41;100928.63;5020061;28;20041;-59
2023/03/20 00:20:37;;;;;;;6.55;2.08;;;;;;;13.05;91.61;100918.16;5050651;28;20041;-59
2023/03/20 00:23:03;;;;;;;4.22;1.63;;;;;;;13.05;91.75;100924.34;5050397;28;20044;-59
2023/03/20 00:25:29;;;;;;;8.13;1.85;;;;;;;13.08;91.71;100928.25;5050363;28;20085;-58
2023/03/20 00:27:55;;;;;;;4.88;2.40;;;;;;;13.06;91.50;100928.63;5040850;28;20061;-60
2023/03/20 00:30:29;;;;;;;4.13;1.98;;;;;;;13.09;91.79;100921.69;5050685;28;20028;-60
2023/03/20 00:32:57;;;;;;;5.57;2.28;;;;;;;13.06;91.47;100919.72;5048276;28;20028;-58
2023/03/20 00:35:30;;;;;;;7.35;2.50;;;;;;;13.07;91.73;100919.34;5040969;28;20024;-56
2023/03/20 00:37:57;;;;;;;4.55;1.80;;;;;;;13.10;91.15;100921.34;5048294;28;20104;-59
2023/03/20 00:40:30;;;;;;;4.82;2.65;;;;;;;13.05;92.08;100913.53;5049063;28;20056;-60
2023/03/20 00:43:01;;;;;;;2.20;1.27;;;;;;;13.10;91.47;100912.44;5046688;28;20029;-58
2023/03/20 00:45:30;;;;;;;4.72;1.33;;;;;;;12.97;92.02;100913.78;5049463;28;20028;-57
2023/03/20 00:47:57;;;;;;;7.07;2.20;;;;;;;13.02;90.77;100913.47;5031738;28;20025;-59
2023/03/20 00:50:25;;;;;;;3.13;1.20;;;;;;;12.98;91.45;100909.91;5049173;28;20071;-58
2023/03/20 00:52:52;;;;;;;5.47;1.80;;;;;;;12.99;91.72;100908.78;5046641;28;20086;-60
2023/03/20 00:55:20;;;;;;;8.07;1.70;;;;;;;12.93;91.75;100902.88;5048848;28;20037;-60
2023/03/20 00:57:56;;;;;;;6.03;2.05;;;;;;;13.03;91.61;100901.47;5048489;28;20020;-60
2023/03/20 01:00:28;;;;;;;4.53;1.52;;;;;;;12.96;91.27;100904.09;5036999;28;20154;-60
2023/03/20 01:02:56;;;;;;;3.95;1.95;;;;;;;12.94;91.66;100906.38;5034852;28;20128;-61
2023/03/20 01:05:25;;;;;;;6.03;2.53;;;;;;;12.96;91.71;100901.38;5048534;28;20391;-59
2023/03/20 01:07:52;;;;;;;3.80;1.73;;;;;;;12.78;92.36;100903.81;5049849;28;20472;-58
2023/03/20 01:10:18;;;;;;;4.88;2.60;;;;;;;12.67;93.24;100900.19;5043078;28;20044;-59
2023/03/20 01:12:45;;;;;;;5.68;1.58;;;;;;;12.80;92.64;100900.75;5049011;28;20025;-59
2023/03/20 01:15:18;;;;;;;4.40;2.30;;;;;;;12.75;92.88;100901.06;5051533;28;20033;-59
2023/03/20 01:17:44;;;;;;;4.15;1.50;;;;;;;12.71;93.78;100906.44;5045110;28;20510;-59
2023/03/20 01:20:26;;;;;;;5.80;2.08;;;;;;;12.78;93.05;100914.63;5051639;28;20044;-60
2023/03/20 01:22:51;;;;;;;9.13;2.42;;;;;;;12.84;92.91;100904.28;5051823;28;20059;-61
2023/03/20 01:25:17;;;;;;;2.30;1.52;;;;;;;12.72;93.65;100907.97;5046738;28;20040;-60
2023/03/20 01:27:50;;;;;;;4.07;1.95;;;;;;;12.60;93.68;100900.84;5031431;28;20086;-56
2023/03/20 01:30:22;;;;;;;3.20;1.30;;;;;;;12.58;93.82;100911.22;5033532;28;20037;-58
2023/03/20 01:32:48;;;;;;;4.30;1.90;;;;;;;12.74;93.62;100910.34;5042622;28;20397;-59
2023/03/20 01:35:16;;;;;;;3.97;2.38;;;;;;;12.75;93.58;100915.38;5047314;28;20565;-60
2023/03/20 01:37:42;;;;;;;5.70;2.35;;;;;;;12.82;93.03;100912.78;5046867;28;20503;-56
2023/03/20 01:40:39;;;;;;;4.50;1.77;;;;;;;12.93;92.42;100912.94;5043281;28;20479;-56
2023/03/20 01:43:14;;;;;;;3.42;2.08;;;;;;;12.81;92.12;100916.63;5042649;28;20047;-56
2023/03/20 01:45:48;;;;;;;6.85;1.38;;;;;;;12.96;92.26;100917.59;5046901;28;20029;-57
2023/03/20 01:48:18;;;;;;;4.68;1.27;;;;;;;12.80;92.79;100906.16;5046504;28;20110;-55
2023/03/20 01:50:43;;;;;;;3.63;2.13;;;;;;;12.82;93.30;100911.97;5046894;28;20048;-59
2023/03/20 01:53:17;;;;;;;2.97;1.45;;;;;;;12.86;93.22;100916.31;5047906;28;20395;-60
2023/03/20 01:55:56;;;;;;;5.07;1.92;;;;;;;12.84;93.21;100915.88;5046875;28;20055;-56
2023/03/20 01:58:27;;;;;;;;;;;;;;;12.79;93.21;100910.03;5048133;28;20033;-62
2023/03/20 02:00:53;;;;;;;7.20;1.80;;;;;;;12.88;92.82;100914.03;5043501;28;19960;-54
2023/03/20 02:03:20;;;;;;;5.00;1.83;;;;;;;12.62;93.30;100912.06;5047831;28;20029;-59
2023/03/20 02:06:07;;;;;;;4.13;1.70;;;;;;;12.47;94.35;100914.91;5036950;28;20038;-52
2023/03/20 02:09:03;;;;;;;4.10;1.80;;;;;;;12.76;92.85;100910.72;5026780;28;20045;-54
2023/03/20 02:11:36;;;;;;;5.38;2.13;;;;;;;12.61;93.32;100915.94;5047338;28;20492;-52
2023/03/20 02:14:03;;;;;;;5.05;1.77;;;;;;;12.67;93.78;100924.50;5048246;28;20025;-52
2023/03/20 02:16:36;;;;;;;3.63;1.65;;;;;;;12.58;93.92;100915.88;5041746;28;20033;-56
2023/03/20 02:19:52;;;;;;;5.30;2.05;;;;;;;12.58;92.81;100913.94;5031632;28;20066;-56
2023/03/20 02:22:36;;;;;;;2.85;2.20;;;;;;;12.58;93.99;100903.13;5051806;28;20037;-61
2023/03/20 02:25:39;;;;;;;7.18;2.75;;;;;;;12.55;93.87;100905.78;5051372;28;20029;-56
2023/03/20 02:28:16;;;;;;;3.55;1.92;;;;;;;12.63;92.89;100905.53;5043428;28;20503;-56
2023/03/20 02:30:57;;;;;;;7.20;1.55;;;;;;;12.50;93.56;100914.94;5051166;28;20423;-60
2023/03/20 02:33:31;;;;;;;4.57;1.48;;;;;;;12.58;93.54;100895.03;5052993;28;20028;-57
2023/03/20 02:36:34;;;;;;;2.13;1.30;;;;;;;12.37;94.25;100904.69;5049193;28;20029;-58
2023/03/20 02:39:25;;;;;;;1.90;1.30;;;;;;;12.39;94.77;100899.72;5049340;28;20062;-60
2023/03/20 02:42:23;;;;;;;1.38;1.02;;;;;;;12.33;94.11;100907.34;5047527;28;20033;-57
2023/03/20 02:45:16;;;;;;;2.08;1.13;;;;;;;12.41;94.52;100898.22;5050838;28;20037;-56
2023/03/20 02:47:57;;;;;;;5.47;2.30;;;;;;;12.25;95.44;100896.78;5028062;28;20079;-58
2023/03/20 02:51:01;;;;;;;2.65;1.05;;;;;;;12.38;94.51;100890.84;5049408;28;20029;-60
2023/03/20 02:53:46;;;;;;;3.63;1.55;;;;;;;12.46;94.03;100892.53;5000148;28;20036;-59
2023/03/20 02:56:27;;;;;;;2.15;0.52;;;;;;;12.37;94.53;100891.97;5041760;28;20095;-56
2023/03/20 02:59:15;;;;;;;2.60;1.83;;;;;;;12.16;94.75;100886.22;5045922;28;20052;-62
2023/03/20 03:01:49;;;;;;;3.10;1.58;;;;;;;12.40;94.46;100893.97;5044912;28;20322;-60
2023/03/20 03:04:24;;;;;;;5.13;1.65;;;;;;;12.47;94.12;100891.38;5048468;28;21192;-55
2023/03/20 03:06:54;;;;;;;2.03;1.35;;;;;;;12.60;92.83;100889.28;5048864;28;20033;-58
2023/03/20 03:09:34;;;;;;;1.38;1.00;;;;;;;12.28;93.90;100885.25;5049890;28;20025;-56
2023/03/20 03:12:24;;;;;;;3.53;1.70;;;;;;;12.26;93.89;100901.03;5045395;28;20048;-55
2023/03/20 03:14:59;;;;;;;2.17;1.60;;;;;;;12.16;94.56;100888.91;4951211;28;20038;-59
2023/03/20 03:17:28;;;;;;;6.70;1.83;;;;;;;12.10;95.00;100895.75;4954707;28;20050;-55
2023/03/20 03:19:59;;;;;;;2.47;1.88;;;;;;;12.13;95.25;100891.56;4969772;28;20047;-61
2023/03/20 03:22:30;;;;;;;7.90;1.60;;;;;;;11.97;95.94;100894.34;4951111;28;20465;-53
2023/03/20 03:24:56;;;;;;;6.78;2.83;;;;;;;12.21;94.74;100894.03;4970373;28;20039;-56
2023/03/20 03:27:36;;;;;;;3.78;1.65;;;;;;;12.08;95.71;100894.56;4954119;28;20383;-56
2023/03/20 03:30:10;;;;;;;3.05;1.98;;;;;;;11.98;97.07;100893.19;4951138;28;20121;-56
2023/03/20 03:32:46;;;;;;;4.38;1.63;;;;;;;11.94;96.89;100889.69;4948144;28;20413;-54
2023/03/20 03:35:19;;;;;;;2.95;1.23;;;;;;;12.09;96.87;100888.78;4946359;28;20489;-55
2023/03/20 03:37:57;;;;;;;7.07;2.47;;;;;;;12.04;96.41;100893.72;4953285;28;20093;-58
2023/03/20 03:40:57;;;;;;;3.25;1.45;;;;;;;12.05;96.82;100887.16;4953967;28;20465;-57
2023/03/20 03:43:52;;;;;;;3.03;1.65;;;;;;;12.09;96.87;100888.78;4966372;28;20039;-59
2023/03/20 03:46:36;;;;;;;3.40;1.83;;;;;;;12.26;95.89;100872.13;4941415;28;20529;-54
2023/03/20 03:49:04;;;;;;;7.90;2.40;;;;;;;12.47;94.55;100877.09;4940936;28;20068;-53
2023/03/20 03:51:34;;;;;;;3.22;1.35;;;;;;;12.29;95.52;100882.19;4958645;28;20036;-56
2023/03/20 03:54:12;;;;;;;5.65;1.90;;;;;;;12.21;95.31;100875.13;5039571;28;20502;-59
2023/03/20 03:56:41;;;;;;;4.55;1.45;;;;;;;12.29;95.37;100867.94;5044745;28;20123;-54
2023/03/20 03:59:18;;;;;;;2.05;1.33;;;;;;;12.31;94.59;100873.75;5049823;28;20020;-57
2023/03/20 04:01:45;;;;;;;4.63;1.70;;;;;;;12.15;95.74;100873.88;5049030;28;20033;-57
2023/03/20 04:04:14;;;;;;;1.65;1.25;;;;;;;12.10;95.59;100873.38;5051085;23;20041;-44
2023/03/20 04:06:41;;;;;;;3.80;1.40;;;;;;;12.18;95.32;100873.13;5028755;28;20415;-49
2023/03/20 04:09:07;;;;;;;2.63;1.30;;;;;;;12.22;95.01;100881.28;5025959;28;20421;-44
2023/03/20 04:11:34;;;;;;;2.42;1.50;;;;;;;12.15;95.39;100890.06;5027987;28;20108;-45
2023/03/20 04:14:01;;;;;;;3.38;1.38;;;;;;;12.20;95.55;100880.88;5032025;28;20053;-45
2023/03/20 04:16:26;;;;;;;4.90;1.58;;;;;;;12.05;95.67;100885.25;5032662;28;20459;-46
2023/03/20 04:18:54;;;;;;;1.60;1.02;;;;;;;12.20;94.78;100876.25;5027466;28;20732;-43
2023/03/20 04:21:20;;;;;;;3.05;1.02;;;;;;;12.24;94.97;100879.78;5029522;28;20029;-47
2023/03/20 04:23:45;;;;;;;3.42;1.27;;;;;;;12.04;94.89;100885.63;5022630;28;20402;-43
2023/03/20 04:26:12;;;;;;;1.33;1.17;;;;;;;12.06;95.09;100870.59;5040469;28;20029;-47
2023/03/20 04:28:37;;;;;;;3.65;1.35;;;;;;;11.99;95.61;100875.88;5036153;28;20068;-47
2023/03/20 04:31:23;;;;;;;1.80;1.70;;;;;;;12.01;95.70;100873.59;5011856;28;20103;-48
2023/03/20 04:34:06;;;;;;;3.65;1.30;;;;;;;12.03;95.39;100878.63;5023310;28;20072;-48
2023/03/20 04:36:34;;;;;;;3.80;2.05;;;;;;;11.95;95.13;100880.44;5020189;28;20045;-49
2023/03/20 04:39:01;;;;;;;1.75;1.00;;;;;;;11.87;95.90;100884.13;5031217;28;20035;-50
2023/03/20 04:41:27;;;;;;;2.58;1.30;;;;;;;11.98;95.29;100882.41;5031475;28;20093;-51
2023/03/20 04:43:55;;;;;;;3.10;1.25;;;;;;;11.93;95.94;100874.63;5029578;28;20037;-48
2023/03/20 04:46:22;;;;;;;3.22;1.65;;;;;;;12.06;95.59;100881.41;5028638;28;20025;-45
2023/03/20 04:48:47;;;;;;;3.63;1.15;;;;;;;12.00;95.91;100877.44;5028331;28;20411;-47
2023/03/20 04:51:14;;;;;;;1.02;0.98;;;;;;;12.05;95.07;100866.34;5030910;28;20032;-45
2023/03/20 04:53:51;;;;;;;2.28;1.30;;;;;;;11.93;95.90;100871.91;5030616;28;20040;-45
2023/03/20 04:56:17;;;;;;;2.22;1.17;;;;;;;11.95;96.28;100868.84;5031898;28;20410;-44
2023/03/20 04:58:43;;;;;;;2.83;1.40;;;;;;;12.02;95.73;100863.59;5029687;28;20044;-54
2023/03/20 05:01:10;;;;;;;2.60;1.25;;;;;;;11.96;96.08;100868.53;5028573;28;20052;-54
2023/03/20 05:03:35;;;;;;;1.55;0.90;;;;;;;11.91;96.11;100876.88;5028639;28;20076;-45
2023/03/20 05:06:01;;;;;;;4.30;1.25;;;;;;;12.03;94.33;100871.34;5023770;28;20022;-45
2023/03/20 05:08:26;;;;;;;1.05;0.85;;;;;;;11.81;96.03;100866.66;5032700;28;20033;-49
2023/03/20 05:10:57;;;;;;;1.50;0.85;;;;;;;11.54;97.27;100865.75;5032120;28;20029;-52
2023/03/20 05:13:40;;;;;;;1.92;1.05;;;;;;;11.71;97.84;100869.97;5024851;28;20101;-52
2023/03/20 05:16:32;;;;;;;;;;;;;;;11.91;96.77;100870.69;5023989;28;20124;-44
2023/03/20 05:19:08;;;;;;;3.90;0.90;;;;;;;11.71;96.66;100867.28;5016486;28;19913;-56
2023/03/20 05:21:50;;;;;;;3.90;1.00;;;;;;;11.63;96.26;100873.63;5032306;28;20032;-51
2023/03/20 05:24:18;;;;;;;1.27;0.85;;;;;;;11.71;97.19;100862.63;5029587;28;20117;-48
2023/03/20 05:27:00;;;;;;;1.73;0.90;;;;;;;11.76;97.04;100878.56;5031528;28;20399;-55
2023/03/20 05:29:45;;;;;;;2.95;1.33;;;;;;;11.63;97.12;100882.50;5027917;28;20025;-44
2023/03/20 05:32:35;;;;;;;4.30;1.98;;;;;;;11.83;96.23;100879.84;5024889;28;20093;-48
2023/03/20 05:35:29;;;;;;;1.25;0.82;;;;;;;11.72;96.20;100885.00;5012042;28;20061;-51
2023/03/20 05:38:16;;;;;;;2.15;1.73;;;;;;;11.81;95.33;100887.50;5020884;28;20131;-43
2023/03/20 05:40:49;;;;;;;2.53;1.67;;;;;;;11.74;95.33;100893.53;5034906;28;20033;-44
2023/03/20 05:43:46;;;;;;;3.28;1.17;;;;;;;11.42;97.26;100884.75;5016962;28;20049;-46
2023/03/20 05:46:30;;;;;;;4.43;1.20;;;;;;;11.32;98.88;100889.94;5033791;28;20056;-48
2023/03/20 05:49:19;;;;;;;2.75;1.40;;;;;;;11.41;97.51;100895.91;5035877;28;20380;-54
2023/03/20 05:52:05;;;;;;;2.05;1.27;;;;;;;11.51;97.80;100896.13;5038063;28;20128;-45
2023/03/20 05:54:46;;;;;;;1.50;1.35;;;;;;;11.51;97.73;100896.13;5047916;28;20087;-52
2023/03/20 05:57:30;;;;;;;4.00;1.35;;;;;;;11.63;96.78;100900.63;5033262;28;20059;-46
2023/03/20 06:00:16;;;;;;;2.42;1.30;;;;;;;11.66;96.04;100900.72;5036464;28;20624;-56
2023/03/20 06:02:45;;;;;;;2.70;1.20;;;;;;;11.36;96.82;100915.84;5019707;28;20120;-45
2023/03/20 06:05:30;;;;;;;1.08;0.82;;;;;;;11.31;97.82;100915.34;5023637;28;20041;-51
2023/03/20 06:07:56;;;;;;;2.72;0.85;;;;;;;11.11;98.02;100916.44;5019431;28;20059;-49
2023/03/20 06:10:21;;;;;;;2.63;1.17;;;;;;;11.30;97.21;100913.78;5014842;28;20076;-55
2023/03/20 06:12:49;;;;;;;3.08;1.80;;;;;;;11.23;96.88;100913.63;4995544;28;20045;-57
2023/03/20 06:15:15;;;;;;;1.65;0.70;;;;;;;11.06;98.75;100914.78;5016339;28;20021;-56
2023/03/20 06:17:46;;;;;;;2.90;0.85;;;;;;;11.09;97.70;100916.78;4997369;28;20553;-53
2023/03/20 06:20:13;;;;;;;3.88;1.40;;;;;;;11.23;98.14;100919.78;5008413;28;20117;-56
2023/03/20 06:22:39;;;;;;;1.48;1.25;;;;;;;11.40;97.35;100921.31;5033009;28;20116;-52
2023/03/20 06:25:05;;;;;;;2.58;1.60;;;;;;;11.28;97.12;100916.84;5001271;28;20664;-46
2023/03/20 06:27:34;;;;;;;3.45;1.45;;;;;;;11.19;97.22;100921.63;5012151;28;20041;-53
2023/03/20 06:30:00;;;;;;;1.50;1.10;;;;;;;11.23;97.86;100925.19;5013771;28;20040;-50
2023/03/20 06:32:30;;;;;;;2.28;1.20;;;;;;;11.28;97.11;100922.22;5011751;28;20036;-48
2023/03/20 06:34:58;;;;;;;4.68;2.10;;;;;;;11.40;96.32;100927.47;5011498;28;20037;-50
2023/03/20 06:37:24;;;;;;;4.53;1.45;;;;;;;11.39;96.17;100922.44;5011376;28;20048;-54
2023/03/20 06:39:55;;;;;;;2.15;1.10;;;;;;;11.33;96.90;100921.94;5018557;28;20061;-46
2023/03/20 06:42:21;;;;;;;1.20;1.00;;;;;;;11.25;96.56;100924.81;5024744;28;20076;-48
2023/03/20 06:44:48;;;;;;;2.22;1.23;;;;;;;11.37;96.60;100927.41;5023595;28;20049;-54
2023/03/20 06:47:21;;;;;;;1.60;1.50;;;;;;;11.43;95.85;100926.78;5020026;28;20022;-49
2023/03/20 06:49:47;;;;;;;1.42;0.55;;;;;;;11.33;95.10;100926.53;5012120;28;20420;-57
2023/03/20 06:52:16;;;;;;;1.23;0.82;;;;;;;11.37;96.00;100924.72;5008915;28;20049;-48
2023/03/20 06:54:43;;;;;;;2.13;1.05;;;;;;;11.37;96.11;100925.50;5019032;28;20623;-46
2023/03/20 06:57:08;;;;;;;1.52;1.17;;;;;;;11.59;94.57;100927.50;5040759;28;20098;-50
2023/03/20 06:59:35;;;;;;;0.75;0.75;;;;;;;11.71;94.45;100935.47;5034335;28;20130;-53
2023/03/20 07:02:01;;;;;;;1.42;0.85;;;;;;;11.71;94.23;100942.81;5045088;28;20040;-53
2023/03/20 07:04:26;;;;;;;2.28;0.88;;;;;;;11.73;92.97;100935.91;5051415;28;20032;-56
2023/03/20 07:06:56;;;;;;;2.90;1.00;;;;;;;11.80;92.96;100937.97;5049166;28;20040;-44
2023/03/20 07:09:22;;;;;;;4.03;1.10;;;;;;;11.72;93.22;100933.56;5044140;28;20036;-46
2023/03/20 07:11:47;;;;;;;1.40;1.08;;;;;;;11.71;92.95;100930.09;5045540;28;20395;-46
2023/03/20 07:14:14;;;;;;;3.45;1.45;;;;;;;11.47;93.88;100940.34;5049434;28;20444;-51
2023/03/20 07:16:56;;;;;;;1.80;0.93;;;;;;;11.57;93.25;100953.28;5031106;28;20029;-46
2023/03/20 07:19:22;;;;;;;2.85;0.98;;;;;;;11.67;92.86;100952.75;5038366;28;20035;-48
2023/03/20 07:21:56;;;;;;;0.93;0.70;;;;;;;11.62;91.72;100948.38;5024899;28;20060;-48
2023/03/20 07:24:22;;;;;;;;;;;;;;;11.24;93.89;100944.84;5029592;28;20095;-45
2023/03/20 07:26:48;;;;;;;1.40;0.63;;;;;;;11.40;93.65;100949.03;5038860;28;20322;-47
2023/03/20 07:29:13;;;;;;;1.42;1.08;;;;;;;11.64;92.38;100956.91;5038582;28;20029;-53
2023/03/20 07:31:39;;;;;;;0.77;0.63;;;;;;;11.46;92.86;100944.16;5031008;28;20103;-50
2023/03/20 07:34:12;;;;;;;2.05;0.90;;;;;;;11.68;92.74;100940.81;5028958;28;20033;-48
2023/03/20 07:36:40;;;;;;;0.88;0.73;;;;;;;11.60;92.52;100939.06;5030546;28;20044;-44
2023/03/20 07:39:07;;;;;;;1.08;0.55;;;;;;;11.54;92.67;100948.56;5030221;28;20048;-51
2023/03/20 07:41:35;;;;;;;0.88;0.40;;;;;;;11.59;91.95;100959.09;5030783;28;20381;-52
2023/03/20 07:44:04;;;;;;;1.33;0.85;;;;;;;11.84;90.80;100962.31;5010949;28;20061;-49
2023/03/20 07:46:40;;;;;;;0.68;0.40;;;;;;;11.65;90.94;100963.88;5032765;28;20041;-48
2023/03/20 07:49:06;;;;;;;1.00;0.65;;;;;;;11.35;92.32;100962.03;5033257;28;20037;-50
2023/03/20 07:51:32;;;;;;;0.40;0.40;;;;;;;11.45;91.67;100958.78;5018946;28;20712;-50
2023/03/20 07:53:57;;;;;;;1.02;0.57;;;;;;;11.54;90.69;100953.97;5034577;28;20383;-51
2023/03/20 07:56:23;;;;;;;0.95;0.60;;;;;;;11.56;89.85;100960.56;5029924;28;20112;-46
2023/03/20 07:58:49;;;;;;;0.63;0.50;;;;;;;11.37;90.92;100952.47;5035173;28;20037;-48
2023/03/20 08:01:15;;;;;;;2.08;0.82;;;;;;;11.46;91.76;100960.34;5030795;28;20030;-51
2023/03/20 08:03:40;;;;;;;2.45;0.85;;;;;;;11.39;91.55;100960.19;5033817;28;20064;-43
2023/03/20 08:06:08;;;;;;;1.73;0.98;;;;;;;11.49;90.62;100956.94;5036002;28;20060;-43
2023/03/20 08:08:34;;;;;;;1.15;1.00;;;;;;;11.39;90.36;100958.28;5028400;28;20574;-51
2023/03/20 08:11:00;;;;;;;3.08;0.80;;;;;;;11.43;91.28;100953.75;5031513;28;20065;-42
2023/03/20 08:13:26;;;;;;;1.63;0.95;;;;;;;11.57;90.28;100954.06;5040867;28;20052;-47
2023/03/20 08:15:51;;;;;;;1.50;0.55;;;;;;;11.76;89.37;100959.50;5019428;28;20451;-54
2023/03/20 08:18:18;;;;;;;0.55;0.38;;;;;;;11.91;87.99;100960.56;5034767;28;20113;-44
2023/03/20 08:20:44;;;;;;;1.25;0.65;;;;;;;11.78;88.87;100964.53;5041787;28;20079;-46
2023/03/20 08:23:10;;;;;;;0.73;0.40;;;;;;;11.65;89.20;100968.47;5033523;28;20473;-53
2023/03/20 08:25:36;;;;;;;0.28;0.28;;;;;;;11.65;89.55;100971.19;5037225;28;20510;-55
2023/03/20 08:28:02;;;;;;;0.60;0.45;;;;;;;11.69;90.19;100980.16;5050215;28;20171;-47
2023/03/20 08:30:28;;;;;;;5.25;1.05;;;;;;;11.94;88.63;100992.25;5035083;28;20017;-50
2023/03/20 08:32:54;;;;;;;0.85;0.55;;;;;;;11.88;88.67;100990.97;5021040;28;20034;-55
2023/03/20 08:35:20;;;;;;;1.27;0.70;;;;;;;11.61;89.73;100997.28;5029194;28;20462;-52
2023/03/20 08:37:45;;;;;;;1.08;0.68;;;;;;;11.71;89.98;100988.69;5030421;28;20063;-46
2023/03/20 08:40:11;;;;;;;1.10;0.57;;;;;;;11.68;90.33;100995.56;5029062;28;20021;-46
2023/03/20 08:42:37;;;;;;;1.17;0.68;;;;;;;11.40;91.67;100986.03;5027572;28;20041;-55
2023/03/20 08:45:03;;;;;;;1.00;0.75;;;;;;;11.28;92.82;100995.03;5019522;28;20029;-54
2023/03/20 08:47:28;;;;;;;0.50;0.50;;;;;;;11.57;92.17;100983.72;5033718;28;20053;-45
2023/03/20 08:49:53;;;;;;;0.90;0.70;;;;;;;11.69;91.49;100996.34;5027222;28;20100;-45
2023/03/20 08:52:19;;;;;;;1.27;0.47;;;;;;;11.42;92.80;100989.94;5026465;28;20041;-52
2023/03/20 08:54:45;;;;;;;0.73;0.73;;;;;;;11.23;93.93;100986.41;5038953;28;20064;-44
2023/03/20 08:57:11;;;;;;;2.13;0.50;;;;;;;11.41;94.00;100987.59;5034732;28;20028;-48
2023/03/20 08:59:37;;;;;;;0.47;0.38;;;;;;;11.42;94.35;100984.53;5031355;28;20064;-45
2023/03/20 09:02:02;;;;;;;0.73;0.60;;;;;;;11.38;94.96;100983.69;5026830;28;20431;-48
2023/03/20 09:04:28;;;;;;;1.27;0.45;;;;;;;11.38;95.23;100986.38;5031809;28;20041;-44
2023/03/20 09:06:53;;;;;;;2.15;0.57;;;;;;;11.76;93.56;100989.19;5041881;28;20029;-51
2023/03/20 09:09:25;;;;;;;1.75;0.55;;;;;;;11.55;93.73;100996.00;5028578;28;20059;-44
2023/03/20 09:11:50;;;;;;;1.00;0.70;;;;;;;11.71;92.13;100989.44;5019468;28;20164;-57
2023/03/20 09:14:16;;;;;;;1.15;0.82;;;;;;;11.75;92.03;100982.19;5013385;28;20120;-50
2023/03/20 09:16:41;;;;;;;0.63;0.52;;;;;;;11.51;93.43;100990.53;5014802;28;20130;-59
2023/03/20 09:19:07;;;;;;;1.15;0.65;;;;;;;11.86;92.18;100979.72;5004799;28;20045;-59
2023/03/20 09:21:33;;;;;;;1.25;0.63;;;;;;;12.04;89.80;100985.50;5015041;28;20041;-47
2023/03/20 09:23:58;;;;;;;1.70;0.55;;;;;;;12.06;88.66;100983.97;5022849;28;20071;-57
2023/03/20 09:26:23;;;;;;;0.93;0.50;;;;;;;12.16;88.17;100982.63;5022204;28;20041;-46
2023/03/20 09:28:49;;;;;;;0.40;0.40;;;;;;;12.14;88.03;100972.19;5027346;28;20107;-51
2023/03/20 09:31:14;;;;;;;1.50;0.65;;;;;;;12.11;87.16;100972.91;5022759;28;20046;-50
2023/03/20 09:33:40;;;;;;;0.90;0.45;;;;;;;12.12;87.66;100982.56;5023054;28;20040;-44
2023/03/20 09:36:10;;;;;;;1.40;0.75;;;;;;;12.19;87.47;100995.41;5023612;28;20036;-49
2023/03/20 09:38:36;;;;;;;0.65;0.47;;;;;;;12.23;87.02;100988.16;5018680;28;20096;-50
2023/03/20 09:41:03;;;;;;;0.75;0.30;;;;;;;12.06;87.70;100988.63;5026709;28;20022;-45
2023/03/20 09:43:46;;;;;;;0.95;0.60;;;;;;;12.16;86.92;100994.22;5017539;28;20037;-53
2023/03/20 09:46:33;;;;;;;0.40;0.40;;;;;;;12.00;86.70;100990.78;5029023;28;20110;-45
2023/03/20 09:49:04;;;;;;;0.35;0.35;;;;;;;12.08;86.63;100997.91;5017931;28;20037;-58
2023/03/20 09:51:36;;;;;;;;;;;;;;;12.33;85.20;100993.75;5018031;28;20069;-44
2023/03/20 09:54:09;;;;;;;1.63;0.77;;;;;;;11.90;87.63;100987.91;5019324;28;19962;-51
2023/03/20 09:56:35;;;;;;;1.27;0.57;;;;;;;11.80;88.58;100994.66;5022846;28;20089;-46
2023/03/20 09:59:05;;;;;;;0.63;0.50;;;;;;;11.70;89.40;100992.50;5023632;28;20112;-47
2023/03/20 10:02:05;;;;;;;0.85;0.57;;;;;;;12.04;88.47;100991.66;5027667;28;20064;-46
2023/03/20 10:04:31;;;;;;;1.35;0.63;;;;;;;11.87;89.28;101005.56;5007067;28;20045;-49
2023/03/20 10:06:57;;;;;;;0.43;0.43;;;;;;;12.22;87.07;100997.41;5009753;28;20087;-46
2023/03/20 10:09:22;;;;;;;1.88;0.88;;;;;;;12.25;86.30;101005.56;5025873;28;20036;-59
2023/03/20 10:12:19;;;;;;;4.03;1.50;;;;;;;12.38;85.38;101003.50;5015185;28;20025;-46
2023/03/20 10:14:45;;;;;;;4.38;1.27;;;;;;;12.29;86.21;101003.72;5026125;28;20042;-53
2023/03/20 10:17:32;;;;;;;1.38;0.70;;;;;;;12.65;84.11;101002.44;5027321;28;20480;-44
2023/03/20 10:20:10;;;;;;;1.33;0.80;;;;;;;12.56;84.25;101001.91;5030334;28;20083;-44
2023/03/20 10:22:39;;;;;;;1.13;0.70;;;;;;;12.68;83.16;100999.81;5027986;28;20044;-48
2023/03/20 10:25:18;;;;;;;0.73;0.60;;;;;;;12.51;84.64;101002.97;5029348;28;20045;-49
2023/03/20 10:27:58;;;;;;;0.90;0.55;;;;;;;12.46;84.10;101005.19;5026857;28;20034;-46
2023/03/20 10:30:46;;;;;;;1.60;1.02;;;;;;;12.51;84.86;101005.69;5029279;28;20072;-46
2023/03/20 10:33:26;;;;;;;2.33;0.77;;;;;;;12.71;83.80;100995.59;5025754;28;20065;-47
2023/03/20 10:36:24;;;;;;;0.97;0.90;;;;;;;12.59;83.83;100995.78;5030657;28;20033;-45
2023/03/20 10:39:21;;;;;;;2.28;0.75;;;;;;;12.65;83.30;100995.13;5033066;28;20298;-46
2023/03/20 10:41:52;;;;;;;1.33;0.70;;;;;;;12.68;82.14;100988.19;5016803;28;20433;-46
2023/03/20 10:44:23;;;;;;;;;;;;;;;12.54;82.10;100979.88;5017899;28;20094;-44
2023/03/20 10:46:53;;;;;;;0.80;0.60;;;;;;;12.54;82.25;100977.94;5034860;28;19958;-45
2023/03/20 10:49:36;;;;;;;1.40;0.90;;;;;;;12.55;82.22;100984.13;5033439;28;20033;-44
2023/03/20 10:52:03;;;;;;;1.25;0.60;;;;;;;12.62;81.34;100968.03;5034227;28;20065;-44
2023/03/20 10:54:40;;;;;;;0.50;0.50;;;;;;;12.65;80.56;100978.13;5034739;28;20029;-44
2023/03/20 10:57:14;;;;;;;1.10;0.70;;;;;;;12.76;79.79;100968.28;5050839;28;20477;-45
2023/03/20 10:59:43;;;;;;;2.15;1.02;;;;;;;12.60;78.85;100964.94;5044278;28;20127;-46
2023/03/20 11:02:11;;;;;;;0.50;0.50;;;;;;;12.36;80.20;100979.56;5051043;28;20029;-48
2023/03/20 11:04:37;;;;;;;0.75;0.70;;;;;;;12.34;80.03;100973.72;5032992;28;20503;-46
2023/03/20 11:07:27;;;;;;;0.88;0.65;;;;;;;12.40;79.59;100977.69;5032473;28;20135;-48
2023/03/20 11:10:09;;;;;;;2.17;1.17;;;;;;;12.61;78.07;100971.88;5038480;28;20049;-49
2023/03/20 11:12:43;;;;;;;0.43;0.40;;;;;;;12.49;78.77;100972.84;5032633;28;20045;-49
2023/03/20 11:15:43;;;;;;;2.53;0.50;;;;;;;12.45;79.94;100971.19;5023383;28;20042;-50
2023/03/20 11:18:15;;;;;;;0.93;0.77;;;;;;;12.59;78.27;100958.75;5005900;28;20096;-52
2023/03/20 11:20:45;;;;;;;1.42;0.93;;;;;;;12.74;77.51;100958.97;5033843;28;20763;-50
2023/03/20 11:23:16;;;;;;;1.47;0.90;;;;;;;12.68;78.07;100975.47;5031953;28;20034;-46
2023/03/20 11:26:00;;;;;;;0.77;0.45;;;;;;;12.49;78.44;100970.13;5017851;28;20044;-47
2023/03/20 11:28:35;;;;;;;0.98;0.40;;;;;;;12.22;80.04;100954.97;5028207;28;20388;-46
2023/03/20 11:31:26;;;;;;;0.88;0.50;;;;;;;12.47;78.48;100967.00;5021957;28;20029;-46
2023/03/20 11:34:14;;;;;;;2.35;0.65;;;;;;;12.49;79.40;100958.53;5019052;28;20049;-48
2023/03/20 11:36:55;;;;;;;0.82;0.43;;;;;;;12.64;76.99;100969.22;5014778;28;20034;-44
2023/03/20 11:39:23;;;;;;;0.50;0.50;;;;;;;12.89;74.96;100953.41;5027671;28;20059;-44
2023/03/20 11:41:51;;;;;;;0.52;0.40;;;;;;;12.61;76.66;100951.06;5033107;28;20029;-46
2023/03/20 11:44:24;;;;;;;4.57;0.80;;;;;;;12.61;77.12;100947.56;5022305;28;20065;-46
2023/03/20 11:47:05;;;;;;;2.25;1.23;;;;;;;12.74;75.43;100950.88;5014717;28;20117;-52
2023/03/20 11:49:32;;;;;;;0.60;0.55;;;;;;;12.79;74.50;100945.16;5030652;28;20094;-47
2023/03/20 11:52:21;;;;;;;1.02;0.80;;;;;;;12.87;74.02;100949.53;5025024;28;20113;-53